createdAt,value
2023-01-19T00:00:10.815Z,1.90
2023-01-19T00:02:39.783Z,1.80
2023-01-19T00:04:42.615Z,2.10
2023-01-19T00:06:45.290Z,2.20
2023-01-19T00:08:50.238Z,3.40
2023-01-19T00:10:52.810Z,3.00
2023-01-19T00:12:55.687Z,2.60
2023-01-19T00:14:58.208Z,2.20
2023-01-19T00:17:01.853Z,1.80
2023-01-19T00:19:04.767Z,1.60
2023-01-19T00:21:07.329Z,1.30
2023-01-19T00:23:10.239Z,1.40
2023-01-19T00:25:13.895Z,1.50
2023-01-19T00:27:17.075Z,1.30
2023-01-19T00:29:20.817Z,1.40
2023-01-19T00:31:23.437Z,1.60
2023-01-19T00:33:35.274Z,1.80
2023-01-19T00:35:38.246Z,1.20
2023-01-19T00:37:40.977Z,1.20
2023-01-19T00:39:44.183Z,1.20
2023-01-19T00:42:07.350Z,1.40
2023-01-19T00:44:10.752Z,1.10
2023-01-19T00:46:13.329Z,1.10
2023-01-19T00:48:15.980Z,1.00
2023-01-19T00:50:18.761Z,1.60
2023-01-19T00:52:21.417Z,4.60
2023-01-19T00:54:24.445Z,6.30
2023-01-19T00:56:27.663Z,8.40
2023-01-19T00:58:30.345Z,9.00
2023-01-19T01:00:33.217Z,8.70
2023-01-19T01:02:36.905Z,7.20
2023-01-19T01:04:39.768Z,7.20
2023-01-19T01:06:42.886Z,4.70
2023-01-19T01:08:45.534Z,4.80
2023-01-19T01:10:48.140Z,3.80
2023-01-19T01:12:59.380Z,4.90
2023-01-19T01:15:23.391Z,6.30
2023-01-19T01:17:26.121Z,5.80
2023-01-19T01:19:28.725Z,5.90
2023-01-19T01:21:31.274Z,6.60
2023-01-19T01:23:35.264Z,4.60
2023-01-19T01:25:38.656Z,4.00
2023-01-19T01:27:42.437Z,2.70
2023-01-19T01:29:48.626Z,2.40
2023-01-19T01:31:51.302Z,2.50
2023-01-19T01:33:53.981Z,2.60
2023-01-19T01:35:56.671Z,2.30
2023-01-19T01:38:00.716Z,2.50
2023-01-19T01:40:04.850Z,2.10
2023-01-19T01:42:19.932Z,2.00
2023-01-19T01:44:55.501Z,1.70
2023-01-19T01:46:58.674Z,1.90
2023-01-19T01:49:07.560Z,1.50
2023-01-19T01:51:37.510Z,1.80
2023-01-19T01:53:41.750Z,1.40
2023-01-19T01:55:49.042Z,1.40
2023-01-19T01:57:59.313Z,2.00
2023-01-19T02:00:04.722Z,1.70
2023-01-19T02:02:34.904Z,1.50
2023-01-19T02:04:40.325Z,1.70
2023-01-19T02:07:01.802Z,1.60
2023-01-19T02:09:29.185Z,1.90
2023-01-19T02:11:51.530Z,1.50
2023-01-19T02:13:54.232Z,1.60
2023-01-19T02:16:04.685Z,1.90
2023-01-19T02:18:07.200Z,1.60
2023-01-19T02:20:10.805Z,1.70
2023-01-19T02:22:24.710Z,2.00
2023-01-19T02:24:28.277Z,1.80
2023-01-19T02:26:36.761Z,1.80
2023-01-19T02:28:45.332Z,1.70
2023-01-19T02:30:48.521Z,1.70
2023-01-19T02:32:52.328Z,1.60
2023-01-19T02:34:55.817Z,1.90
2023-01-19T02:37:06.515Z,2.00
2023-01-19T02:39:11.112Z,1.70
2023-01-19T02:41:22.968Z,1.70
2023-01-19T02:43:27.949Z,1.50
2023-01-19T02:45:31.131Z,1.80
2023-01-19T02:47:45.023Z,1.60
2023-01-19T02:49:56.681Z,1.60
2023-01-19T02:52:01.206Z,1.70
2023-01-19T02:54:27.629Z,2.00
2023-01-19T02:56:55.712Z,1.90
2023-01-19T02:59:16.083Z,2.80
2023-01-19T03:01:23.047Z,2.20
2023-01-19T03:05:46.132Z,1.90
2023-01-19T03:08:10.712Z,1.90
2023-01-19T03:12:30.380Z,2.00
2023-01-19T03:14:37.380Z,2.10
2023-01-19T03:16:48.527Z,1.90
2023-01-19T03:18:55.596Z,2.00
2023-01-19T03:21:02.718Z,1.90
2023-01-19T03:23:10.437Z,1.50
2023-01-19T03:25:15.180Z,2.00
2023-01-19T03:27:26.382Z,1.70
2023-01-19T03:29:36.357Z,2.10
2023-01-19T03:31:43.308Z,1.60
2023-01-19T03:33:51.610Z,1.40
2023-01-19T03:36:03.775Z,1.70
2023-01-19T03:38:13.688Z,1.70
2023-01-19T03:40:17.176Z,2.20
2023-01-19T03:42:20.619Z,1.70
2023-01-19T03:44:26.105Z,1.50
2023-01-19T03:46:29.612Z,1.50
2023-01-19T03:48:33.555Z,1.60
2023-01-19T03:50:36.831Z,1.50
2023-01-19T03:52:39.682Z,1.60
2023-01-19T03:54:43.033Z,1.00
2023-01-19T03:56:45.540Z,1.40
2023-01-19T03:58:48.211Z,1.50
2023-01-19T04:00:51.146Z,1.40
2023-01-19T04:02:55.650Z,1.40
2023-01-19T04:04:58.259Z,1.40
2023-01-19T04:07:01.841Z,2.00
2023-01-19T04:09:04.523Z,2.00
2023-01-19T04:11:08.919Z,1.60
2023-01-19T04:13:11.764Z,1.50
2023-01-19T04:15:17.085Z,2.20
2023-01-19T04:17:20.785Z,1.80
2023-01-19T04:19:24.216Z,2.10
2023-01-19T04:21:28.745Z,1.60
2023-01-19T04:23:31.833Z,1.60
2023-01-19T04:25:34.759Z,1.50
2023-01-19T04:27:39.307Z,1.40
2023-01-19T04:29:42.506Z,1.60
2023-01-19T04:31:46.653Z,1.50
2023-01-19T04:33:50.247Z,1.50
2023-01-19T04:35:57.174Z,1.60
2023-01-19T04:38:00.491Z,1.40
2023-01-19T04:40:03.686Z,1.40
2023-01-19T04:42:07.001Z,1.50
2023-01-19T04:44:10.031Z,1.70
2023-01-19T04:46:12.931Z,1.70
2023-01-19T04:48:19.354Z,1.80
2023-01-19T04:50:22.502Z,1.50
2023-01-19T04:52:25.792Z,1.40
2023-01-19T04:54:29.611Z,2.00
2023-01-19T04:56:34.306Z,2.30
2023-01-19T04:58:36.992Z,2.10
2023-01-19T05:00:42.928Z,1.80
2023-01-19T05:02:45.831Z,2.00
2023-01-19T05:04:48.721Z,2.30
2023-01-19T05:07:01.489Z,1.70
2023-01-19T05:11:08.092Z,1.60
2023-01-19T05:13:10.721Z,1.40
2023-01-19T05:15:13.411Z,1.70
2023-01-19T05:17:16.001Z,1.70
2023-01-19T05:19:18.615Z,1.80
2023-01-19T05:21:23.157Z,1.70
2023-01-19T05:23:27.856Z,1.90
2023-01-19T05:25:30.532Z,1.80
2023-01-19T05:27:34.729Z,1.90
2023-01-19T05:29:38.195Z,1.80
2023-01-19T05:31:40.828Z,1.50
2023-01-19T05:33:56.634Z,1.70
2023-01-19T05:36:02.527Z,1.40
2023-01-19T05:38:05.831Z,1.70
2023-01-19T05:40:09.523Z,1.70
2023-01-19T05:42:12.287Z,1.80
2023-01-19T05:44:15.345Z,1.70
2023-01-19T05:46:17.860Z,2.00
2023-01-19T05:48:20.457Z,2.00
2023-01-19T05:50:23.581Z,1.70
2023-01-19T05:52:26.711Z,1.80
2023-01-19T05:54:29.338Z,1.90
2023-01-19T05:56:33.054Z,1.90
2023-01-19T05:58:39.985Z,2.00
2023-01-19T06:00:43.431Z,1.80
2023-01-19T06:02:49.597Z,1.80
2023-01-19T06:06:58.692Z,2.30
2023-01-19T06:09:01.908Z,1.80
2023-01-19T06:11:07.635Z,2.20
2023-01-19T06:13:12.367Z,2.40
2023-01-19T06:15:15.432Z,1.80
2023-01-19T06:17:18.349Z,1.90
2023-01-19T06:19:21.231Z,2.10
2023-01-19T06:21:24.056Z,1.90
2023-01-19T06:23:54.746Z,2.20
2023-01-19T06:25:58.074Z,1.60
2023-01-19T06:28:06.955Z,2.10
2023-01-19T06:30:11.215Z,1.80
2023-01-19T06:32:13.936Z,1.80
2023-01-19T06:34:16.787Z,2.40
2023-01-19T06:36:19.475Z,2.40
2023-01-19T06:38:22.508Z,2.40
2023-01-19T06:40:31.381Z,2.20
2023-01-19T06:42:34.444Z,2.30
2023-01-19T06:44:52.927Z,2.50
2023-01-19T06:47:15.723Z,2.20
2023-01-19T06:49:22.105Z,2.40
2023-01-19T06:51:25.497Z,2.30
2023-01-19T06:53:30.226Z,1.80
2023-01-19T06:55:35.890Z,1.90
2023-01-19T06:57:40.239Z,1.70
2023-01-19T06:59:42.891Z,2.00
2023-01-19T07:01:45.611Z,1.90
2023-01-19T07:03:48.529Z,1.70
2023-01-19T07:06:06.594Z,2.70
2023-01-19T07:08:09.589Z,2.80
2023-01-19T07:10:15.603Z,2.90
2023-01-19T07:12:18.597Z,2.80
2023-01-19T07:14:21.230Z,3.60
2023-01-19T07:16:24.224Z,4.50
2023-01-19T07:18:27.168Z,4.40
2023-01-19T07:20:29.802Z,4.20
2023-01-19T07:22:46.950Z,3.80
2023-01-19T07:24:49.495Z,4.20
2023-01-19T07:26:54.402Z,3.40
2023-01-19T07:28:57.358Z,2.90
2023-01-19T07:31:00.327Z,2.70
2023-01-19T07:33:04.380Z,2.40
2023-01-19T07:35:07.515Z,2.50
2023-01-19T07:37:12.604Z,2.90
2023-01-19T07:39:18.134Z,2.50
2023-01-19T07:41:21.273Z,2.20
2023-01-19T07:43:23.912Z,2.00
2023-01-19T07:45:28.010Z,1.90
2023-01-19T07:47:31.107Z,2.40
2023-01-19T07:49:35.507Z,2.20
2023-01-19T08:37:04.164Z,4.40
2023-01-19T08:39:09.164Z,3.90
2023-01-19T08:41:12.809Z,3.70
2023-01-19T08:43:17.359Z,3.30
2023-01-19T08:45:20.326Z,3.30
2023-01-19T08:47:23.065Z,3.50
2023-01-19T08:49:25.790Z,3.30
2023-01-19T08:51:28.979Z,3.30
2023-01-19T08:53:31.931Z,4.30
2023-01-19T08:55:36.847Z,5.70
2023-01-19T08:57:40.366Z,3.30
2023-01-19T08:59:43.169Z,3.60
2023-01-19T09:01:46.172Z,3.30
2023-01-19T09:03:49.490Z,6.30
2023-01-19T09:05:52.111Z,7.70
2023-01-19T09:07:54.965Z,5.60
2023-01-19T09:09:57.687Z,6.00
2023-01-19T09:12:00.499Z,5.50
2023-01-19T09:14:03.777Z,3.50
2023-01-19T09:16:08.615Z,4.40
2023-01-19T09:18:15.185Z,2.70
2023-01-19T09:22:20.932Z,2.50
2023-01-19T09:24:23.926Z,3.10
2023-01-19T09:26:28.302Z,3.00
2023-01-19T09:28:31.511Z,3.30
2023-01-19T09:30:36.143Z,3.10
2023-01-19T09:32:39.009Z,3.80
2023-01-19T09:34:41.684Z,3.30
2023-01-19T09:36:46.768Z,3.30
2023-01-19T09:38:49.740Z,3.30
2023-01-19T09:40:55.466Z,3.90
2023-01-19T09:43:33.306Z,2.90
2023-01-19T09:46:07.067Z,3.30
2023-01-19T09:48:26.673Z,3.70
2023-01-19T09:50:36.675Z,5.10
2023-01-19T09:52:44.250Z,3.00
2023-01-19T09:54:53.344Z,3.20
2023-01-19T09:56:56.162Z,2.50
2023-01-19T09:58:59.993Z,3.40
2023-01-19T10:01:15.783Z,2.30
2023-01-19T10:03:20.881Z,5.60
2023-01-19T10:05:44.740Z,5.80
2023-01-19T10:08:03.891Z,2.90
2023-01-19T10:10:27.690Z,2.50
2023-01-19T10:12:59.194Z,3.20
2023-01-19T10:15:30.612Z,3.40
2023-01-19T10:17:50.334Z,3.50
2023-01-19T10:19:57.565Z,3.50
2023-01-19T10:22:04.951Z,4.90
2023-01-19T10:24:21.327Z,3.40
2023-01-19T10:26:34.075Z,3.20
2023-01-19T10:28:38.617Z,3.10
2023-01-19T10:30:44.159Z,2.60
2023-01-19T10:32:47.425Z,2.70
2023-01-19T10:34:51.028Z,2.60
2023-01-19T10:37:04.315Z,3.10
2023-01-19T10:39:08.512Z,3.00
2023-01-19T10:41:28.640Z,2.50
2023-01-19T10:43:34.952Z,2.90
2023-01-19T10:45:38.151Z,3.50
2023-01-19T10:47:42.165Z,2.70
2023-01-19T10:49:45.025Z,5.30
2023-01-19T10:51:49.133Z,6.00
2023-01-19T10:54:03.161Z,3.80
2023-01-19T10:56:27.260Z,3.10
2023-01-19T10:58:31.493Z,5.50
2023-01-19T11:00:42.683Z,5.30
2023-01-19T11:02:50.364Z,3.80
2023-01-19T11:04:56.887Z,4.70
2023-01-19T11:07:34.081Z,3.10
2023-01-19T11:09:37.063Z,2.40
2023-01-19T11:11:45.805Z,2.30
2023-01-19T11:14:07.317Z,2.50
2023-01-19T11:16:19.030Z,3.30
2023-01-19T11:18:28.975Z,3.10
2023-01-19T11:20:51.059Z,2.40
2023-01-19T11:23:25.006Z,3.30
2023-01-19T11:25:31.492Z,2.10
2023-01-19T11:27:37.730Z,2.10
2023-01-19T11:29:40.438Z,2.40
2023-01-19T11:31:44.315Z,2.70
2023-01-19T11:33:47.670Z,2.90
2023-01-19T11:36:03.017Z,3.10
2023-01-19T11:38:12.410Z,3.20
2023-01-19T11:40:15.913Z,3.30
2023-01-19T11:42:20.259Z,5.80
2023-01-19T11:44:30.065Z,4.80
2023-01-19T11:46:34.801Z,2.10
2023-01-19T11:48:50.145Z,2.40
2023-01-19T11:50:55.262Z,3.00
2023-01-19T11:53:14.558Z,2.70
2023-01-19T11:55:22.101Z,4.60
2023-01-19T11:57:25.877Z,2.40
2023-01-19T11:59:28.956Z,2.80
2023-01-19T12:01:35.979Z,2.40
2023-01-19T12:03:47.846Z,2.90
2023-01-19T12:05:57.107Z,2.30
2023-01-19T12:08:06.721Z,2.80
2023-01-19T12:10:28.889Z,2.30
2023-01-19T12:12:35.517Z,3.20
2023-01-19T12:16:44.787Z,2.60
2023-01-19T12:19:17.048Z,2.40
2023-01-19T12:21:20.216Z,3.10
2023-01-19T12:23:32.529Z,3.20
2023-01-19T12:25:54.938Z,4.40
2023-01-19T12:27:59.270Z,2.70
2023-01-19T12:30:03.030Z,2.10
2023-01-19T12:32:14.676Z,2.90
2023-01-19T12:34:27.490Z,3.10
2023-01-19T12:36:30.053Z,5.20
2023-01-19T12:38:35.022Z,3.00
2023-01-19T12:40:37.659Z,2.10
2023-01-19T12:42:46.771Z,2.20
2023-01-19T12:44:55.209Z,1.90
2023-01-19T12:47:15.960Z,2.50
2023-01-19T12:49:40.211Z,3.40
2023-01-19T12:53:53.188Z,2.30
2023-01-19T12:56:01.269Z,2.10
2023-01-19T12:58:14.738Z,2.60
2023-01-19T13:00:23.015Z,4.60
2023-01-19T13:02:43.417Z,2.90
2023-01-19T13:05:25.046Z,1.90
2023-01-19T13:07:27.651Z,2.90
2023-01-19T13:09:31.584Z,2.50
2023-01-19T13:11:34.839Z,3.00
2023-01-19T13:13:38.743Z,2.50
2023-01-19T13:15:41.741Z,1.90
2023-01-19T13:17:53.640Z,1.80
2023-01-19T13:20:05.203Z,2.40
2023-01-19T13:22:45.371Z,2.00
2023-01-19T13:25:21.801Z,3.40
2023-01-19T13:29:35.257Z,2.00
2023-01-19T13:31:41.312Z,2.30
2023-01-19T13:33:52.060Z,3.30
2023-01-19T13:35:58.593Z,4.20
2023-01-19T13:40:04.464Z,2.80
2023-01-19T13:42:15.691Z,2.60
2023-01-19T13:44:23.861Z,2.30
2023-01-19T13:46:29.232Z,1.80
2023-01-19T13:48:32.594Z,2.00
2023-01-19T13:50:39.253Z,2.80
2023-01-19T13:52:43.589Z,2.70
2023-01-19T13:54:53.196Z,6.50
2023-01-19T13:56:56.140Z,2.70
2023-01-19T13:59:09.725Z,2.60
2023-01-19T14:01:23.385Z,2.30
2023-01-19T14:03:26.823Z,3.90
2023-01-19T14:05:29.513Z,2.20
2023-01-19T14:07:32.084Z,2.90
2023-01-19T14:09:34.698Z,2.90
2023-01-19T14:11:38.745Z,2.50
2023-01-19T14:13:44.836Z,1.80
2023-01-19T14:15:50.305Z,1.80
2023-01-19T14:18:21.744Z,2.00
2023-01-19T14:20:29.878Z,1.70
2023-01-19T14:22:44.379Z,1.50
2023-01-19T14:24:47.021Z,1.40
2023-01-19T14:26:52.796Z,1.50
2023-01-19T14:28:55.473Z,2.40
2023-01-19T14:31:03.915Z,2.50
2023-01-19T14:33:32.680Z,2.00
2023-01-19T14:35:35.296Z,2.00
2023-01-19T14:37:47.269Z,2.50
2023-01-19T14:39:57.583Z,2.10
2023-01-19T14:42:04.027Z,2.60
2023-01-19T14:44:11.566Z,2.80
2023-01-19T14:46:19.196Z,4.10
2023-01-19T14:48:22.637Z,4.20
2023-01-19T14:50:38.042Z,3.90
2023-01-19T14:52:42.179Z,1.80
2023-01-19T14:54:47.006Z,2.10
2023-01-19T14:56:53.728Z,2.30
2023-01-19T14:58:58.254Z,2.20
2023-01-19T15:01:01.692Z,3.10
2023-01-19T15:03:06.169Z,3.50
2023-01-19T15:05:09.874Z,1.90
2023-01-19T15:07:18.164Z,2.00
2023-01-19T15:09:20.886Z,2.30
2023-01-19T15:11:35.870Z,2.70
2023-01-19T15:13:39.265Z,2.40
2023-01-19T15:15:41.956Z,2.10
2023-01-19T15:17:44.859Z,1.60
2023-01-19T15:19:47.647Z,1.40
2023-01-19T15:21:50.212Z,1.70
2023-01-19T15:23:54.395Z,1.90
2023-01-19T15:26:02.173Z,2.50
2023-01-19T15:28:10.711Z,1.70
2023-01-19T15:30:23.330Z,2.00
2023-01-19T15:32:26.012Z,2.90
2023-01-19T15:34:28.584Z,5.60
2023-01-19T15:36:31.270Z,2.10
2023-01-19T15:38:36.074Z,2.00
2023-01-19T15:40:38.783Z,2.70
2023-01-19T15:42:41.849Z,2.60
2023-01-19T15:44:45.012Z,1.60
2023-01-19T15:46:47.652Z,2.00
2023-01-19T15:48:50.816Z,1.90
2023-01-19T15:50:53.583Z,1.90
2023-01-19T15:52:56.293Z,1.70
2023-01-19T15:54:58.866Z,1.50
2023-01-19T15:57:02.005Z,1.70
2023-01-19T15:59:04.978Z,1.60
2023-01-19T16:01:12.775Z,2.30
2023-01-19T16:03:15.971Z,1.90
2023-01-19T16:05:18.631Z,2.10
2023-01-19T16:07:21.303Z,2.20
2023-01-19T16:09:23.942Z,2.60
2023-01-19T16:11:31.289Z,2.40
2023-01-19T16:13:33.965Z,2.30
2023-01-19T16:15:42.702Z,2.30
2023-01-19T16:17:45.691Z,3.20
2023-01-19T16:19:49.546Z,2.60
2023-01-19T16:21:52.327Z,2.10
2023-01-19T16:23:55.295Z,1.60
2023-01-19T16:26:09.571Z,1.60
2023-01-19T16:28:12.471Z,2.90
2023-01-19T16:30:16.427Z,3.70
2023-01-19T16:32:19.312Z,3.30
2023-01-19T16:34:24.128Z,4.80
2023-01-19T16:36:32.641Z,4.40
2023-01-19T16:38:35.204Z,3.00
2023-01-19T16:40:37.985Z,2.40
2023-01-19T16:42:40.822Z,2.20
2023-01-19T16:44:43.365Z,1.40
2023-01-19T16:46:49.329Z,1.80
2023-01-19T16:48:52.490Z,1.80
2023-01-19T16:51:00.291Z,1.80
2023-01-19T16:53:03.361Z,2.00
2023-01-19T16:55:09.611Z,1.70
2023-01-19T16:57:12.944Z,1.60
2023-01-19T16:59:20.015Z,1.70
2023-01-19T17:01:24.523Z,2.20
2023-01-19T17:03:28.635Z,2.00
2023-01-19T17:05:33.692Z,3.30
2023-01-19T17:07:37.087Z,3.60
2023-01-19T17:09:39.945Z,2.00
2023-01-19T17:11:42.723Z,1.60
2023-01-19T17:13:47.613Z,1.70
2023-01-19T17:15:50.672Z,1.60
2023-01-19T17:17:54.980Z,1.70
2023-01-19T17:20:00.106Z,3.00
2023-01-19T17:22:02.790Z,4.20
2023-01-19T17:24:06.963Z,2.70
2023-01-19T17:26:10.754Z,2.50
2023-01-19T17:28:13.868Z,3.80
2023-01-19T17:30:20.517Z,2.30
2023-01-19T17:32:24.720Z,3.40
2023-01-19T17:34:27.862Z,2.20
2023-01-19T17:36:34.485Z,1.80
2023-01-19T17:38:37.888Z,3.50
2023-01-19T17:40:41.742Z,3.50
2023-01-19T17:42:44.577Z,4.20
2023-01-19T17:44:48.351Z,4.50
2023-01-19T17:46:51.183Z,2.40
2023-01-19T17:48:56.527Z,2.30
2023-01-19T17:51:03.831Z,1.90
2023-01-19T17:53:07.587Z,1.60
2023-01-19T17:55:11.799Z,1.60
2023-01-19T17:57:15.400Z,1.50
2023-01-19T17:59:19.742Z,1.70
2023-01-19T18:01:27.203Z,1.60
2023-01-19T18:03:31.782Z,2.30
2023-01-19T18:05:38.155Z,2.00
2023-01-19T18:07:42.347Z,3.10
2023-01-19T18:09:46.863Z,2.80
2023-01-19T18:11:51.395Z,1.60
2023-01-19T18:13:55.685Z,3.90
2023-01-19T18:16:10.248Z,1.60
2023-01-19T18:18:15.164Z,2.20
2023-01-19T18:20:19.554Z,2.80
2023-01-19T18:22:26.085Z,3.70
2023-01-19T18:24:31.057Z,3.90
2023-01-19T18:26:35.489Z,4.30
2023-01-19T18:28:39.796Z,3.00
2023-01-19T18:30:43.946Z,1.90
2023-01-19T18:32:48.183Z,1.90
2023-01-19T18:34:54.375Z,2.00
2023-01-19T18:36:58.209Z,2.00
2023-01-19T18:39:02.772Z,1.80
2023-01-19T18:41:09.074Z,1.60
2023-01-19T18:43:16.179Z,1.70
2023-01-19T18:45:23.557Z,2.00
2023-01-19T18:47:27.778Z,1.80
2023-01-19T18:49:32.232Z,1.90
2023-01-19T18:51:37.955Z,2.20
2023-01-19T18:53:42.404Z,3.20
2023-01-19T18:55:57.682Z,6.00
2023-01-19T18:58:02.051Z,3.60
2023-01-19T19:00:08.551Z,1.80
2023-01-19T19:02:12.191Z,1.70
2023-01-19T19:04:18.085Z,2.20
2023-01-19T19:06:23.859Z,3.30
2023-01-19T19:08:29.129Z,4.50
2023-01-19T19:10:33.919Z,3.80
2023-01-19T19:12:38.209Z,2.70
2023-01-19T19:14:42.957Z,3.00
2023-01-19T19:16:46.606Z,2.00
2023-01-19T19:18:51.542Z,1.50
2023-01-19T19:20:56.408Z,1.60
2023-01-19T19:23:00.547Z,1.70
2023-01-19T19:25:08.229Z,2.00
2023-01-19T19:27:14.509Z,1.70
2023-01-19T19:29:19.578Z,2.90
2023-01-19T19:31:26.321Z,1.80
2023-01-19T19:35:36.075Z,2.30
2023-01-19T19:37:40.726Z,2.40
2023-01-19T19:39:45.163Z,2.40
2023-01-19T19:41:49.389Z,3.50
2023-01-19T19:43:57.278Z,2.90
2023-01-19T19:46:11.753Z,1.60
2023-01-19T19:48:18.582Z,4.40
2023-01-19T19:50:23.164Z,3.80
2023-01-19T19:52:30.376Z,3.60
2023-01-19T19:54:35.351Z,1.90
2023-01-19T19:56:42.078Z,1.90
2023-01-19T19:58:46.277Z,3.20
2023-01-19T20:00:50.723Z,4.40
2023-01-19T20:02:54.226Z,1.70
2023-01-19T20:05:00.047Z,2.40
2023-01-19T20:07:02.723Z,1.50
2023-01-19T20:09:10.709Z,4.10
2023-01-19T20:11:20.949Z,4.00
2023-01-19T20:13:27.338Z,2.10
2023-01-19T20:17:37.476Z,2.00
2023-01-19T20:19:41.749Z,2.00
2023-01-19T20:21:46.573Z,2.20
2023-01-19T20:23:53.263Z,1.60
2023-01-19T20:25:58.427Z,1.50
2023-01-19T20:28:02.185Z,3.00
2023-01-19T20:30:08.325Z,2.00
2023-01-19T20:32:12.548Z,1.80
2023-01-19T20:34:19.635Z,3.10
2023-01-19T20:36:24.535Z,2.50
2023-01-19T20:38:27.206Z,2.40
2023-01-19T20:40:30.897Z,2.60
2023-01-19T20:42:34.258Z,2.30
2023-01-19T20:44:38.767Z,2.80
2023-01-19T20:46:42.721Z,2.80
2023-01-19T20:48:50.896Z,2.00
2023-01-19T20:51:05.073Z,3.20
2023-01-19T20:53:08.478Z,3.90
2023-01-19T20:55:14.096Z,3.50
2023-01-19T20:57:18.023Z,2.50
2023-01-19T20:59:22.048Z,2.20
2023-01-19T21:01:25.765Z,2.70
2023-01-19T21:03:29.708Z,1.80
2023-01-19T21:05:33.208Z,1.60
2023-01-19T21:07:35.833Z,1.60
2023-01-19T21:09:39.760Z,1.70
2023-01-19T21:11:42.491Z,1.90
2023-01-19T21:13:45.020Z,1.80
2023-01-19T21:15:47.712Z,2.00
2023-01-19T21:17:51.141Z,3.50
2023-01-19T21:19:53.857Z,2.10
2023-01-19T21:21:56.436Z,3.10
2023-01-19T21:24:03.444Z,3.40
2023-01-19T21:26:06.982Z,4.40
2023-01-19T21:28:09.674Z,2.10
2023-01-19T21:30:12.384Z,3.20
2023-01-19T21:32:15.294Z,2.00
2023-01-19T21:34:18.197Z,1.90
2023-01-19T21:36:22.484Z,2.20
2023-01-19T21:38:26.982Z,1.70
2023-01-19T21:40:30.007Z,2.40
2023-01-19T21:42:32.645Z,2.90
2023-01-19T21:44:35.411Z,2.00
2023-01-19T21:46:38.604Z,2.30
2023-01-19T21:48:42.670Z,1.90
2023-01-19T21:50:45.407Z,1.90
2023-01-19T21:52:48.909Z,2.00
2023-01-19T21:54:51.522Z,5.00
2023-01-19T21:56:54.208Z,3.60
2023-01-19T21:58:57.420Z,2.30
2023-01-19T22:01:03.181Z,2.30
2023-01-19T22:03:06.476Z,4.80
2023-01-19T22:05:09.429Z,1.60
2023-01-19T22:07:11.971Z,2.50
2023-01-19T22:09:14.638Z,1.90
2023-01-19T22:11:19.161Z,2.60
2023-01-19T22:13:21.816Z,3.30
2023-01-19T22:15:24.504Z,2.20
2023-01-19T22:17:26.981Z,1.70
2023-01-19T22:19:29.590Z,2.40
2023-01-19T22:21:37.550Z,2.00
2023-01-19T22:23:40.777Z,2.10
2023-01-19T22:25:43.345Z,1.80
2023-01-19T22:27:46.075Z,2.20
2023-01-19T22:29:48.754Z,1.80
2023-01-19T22:31:52.393Z,1.90
2023-01-19T22:33:55.456Z,1.90
2023-01-19T22:36:21.067Z,2.40
2023-01-19T22:38:23.615Z,3.80
2023-01-19T22:40:26.389Z,4.70
2023-01-19T22:42:28.957Z,2.10
2023-01-19T22:44:31.482Z,1.80
2023-01-19T22:46:36.590Z,2.90
2023-01-19T22:48:40.527Z,2.40
2023-01-19T22:50:43.069Z,5.30
2023-01-19T22:52:45.635Z,2.90
2023-01-19T22:54:48.167Z,4.00
2023-01-19T22:56:50.722Z,3.80
2023-01-19T22:58:54.032Z,4.00
2023-01-19T23:00:56.805Z,2.60
2023-01-19T23:02:59.422Z,2.40
2023-01-19T23:05:01.972Z,2.50
2023-01-19T23:07:04.600Z,2.10
2023-01-19T23:09:11.508Z,2.10
2023-01-19T23:11:25.805Z,3.20
2023-01-19T23:13:28.412Z,2.20
2023-01-19T23:15:32.855Z,1.70
2023-01-19T23:17:35.380Z,2.30
2023-01-19T23:19:38.000Z,2.40
2023-01-19T23:21:41.209Z,2.10
2023-01-19T23:23:44.697Z,1.70
2023-01-19T23:25:47.203Z,2.50
2023-01-19T23:27:49.912Z,1.90
2023-01-19T23:29:52.839Z,2.60
2023-01-19T23:31:56.281Z,2.30
2023-01-19T23:34:01.838Z,2.40
2023-01-19T23:36:04.979Z,2.40
2023-01-19T23:38:07.648Z,2.60
2023-01-19T23:40:11.168Z,2.80
2023-01-19T23:42:13.812Z,4.10
2023-01-19T23:44:17.625Z,3.40
2023-01-19T23:46:21.306Z,5.00
2023-01-19T23:48:23.871Z,2.80
2023-01-19T23:50:26.725Z,3.90
2023-01-19T23:52:29.276Z,4.40
2023-01-19T23:54:31.840Z,1.60
2023-01-19T23:56:37.348Z,2.20
2023-01-19T23:58:40.679Z,2.90
